sensor_id;sensor_type;location;lat;lon;timestamp;P1;durP1;ratioP1;P2;durP2;ratioP2
71207;SDS011;58938;49.868;8.646;2023-01-23T00:00:04;14.55;;;7.05;;
71207;SDS011;58938;49.868;8.646;2023-01-23T00:02:30;14.32;;;6.53;;
71207;SDS011;58938;49.868;8.646;2023-01-23T00:04:56;12.30;;;6.18;;
71207;SDS011;58938;49.868;8.646;2023-01-23T00:07:22;14.70;;;6.93;;
71207;SDS011;58938;49.868;8.646;2023-01-23T00:09:48;14.93;;;7.30;;
71207;SDS011;58938;49.868;8.646;2023-01-23T00:12:14;16.08;;;7.22;;
71207;SDS011;58938;49.868;8.646;2023-01-23T00:14:40;13.40;;;6.97;;
71207;SDS011;58938;49.868;8.646;2023-01-23T00:17:06;13.67;;;7.20;;
71207;SDS011;58938;49.868;8.646;2023-01-23T00:19:32;14.55;;;6.72;;
71207;SDS011;58938;49.868;8.646;2023-01-23T00:21:59;14.25;;;7.40;;
71207;SDS011;58938;49.868;8.646;2023-01-23T00:24:25;12.63;;;6.80;;
71207;SDS011;58938;49.868;8.646;2023-01-23T00:26:51;12.93;;;6.17;;
71207;SDS011;58938;49.868;8.646;2023-01-23T00:29:17;11.88;;;6.72;;
71207;SDS011;58938;49.868;8.646;2023-01-23T00:31:43;15.57;;;8.20;;
71207;SDS011;58938;49.868;8.646;2023-01-23T00:34:11;13.35;;;6.97;;
71207;SDS011;58938;49.868;8.646;2023-01-23T00:36:37;11.27;;;6.38;;
71207;SDS011;58938;49.868;8.646;2023-01-23T00:39:05;13.17;;;6.73;;
71207;SDS011;58938;49.868;8.646;2023-01-23T00:41:32;14.85;;;7.35;;
71207;SDS011;58938;49.868;8.646;2023-01-23T00:43:58;14.43;;;7.47;;
71207;SDS011;58938;49.868;8.646;2023-01-23T00:46:24;14.02;;;6.90;;
71207;SDS011;58938;49.868;8.646;2023-01-23T00:48:50;13.53;;;6.67;;
71207;SDS011;58938;49.868;8.646;2023-01-23T00:51:16;14.98;;;7.10;;
71207;SDS011;58938;49.868;8.646;2023-01-23T00:53:43;13.25;;;6.85;;
71207;SDS011;58938;49.868;8.646;2023-01-23T00:56:09;16.33;;;7.43;;
71207;SDS011;58938;49.868;8.646;2023-01-23T00:58:35;13.82;;;7.45;;
71207;SDS011;58938;49.868;8.646;2023-01-23T01:01:01;11.63;;;6.07;;
71207;SDS011;58938;49.868;8.646;2023-01-23T01:03:27;13.63;;;6.32;;
71207;SDS011;58938;49.868;8.646;2023-01-23T01:05:52;14.13;;;7.07;;
71207;SDS011;58938;49.868;8.646;2023-01-23T01:08:18;12.93;;;6.60;;
71207;SDS011;58938;49.868;8.646;2023-01-23T01:10:44;14.70;;;6.70;;
71207;SDS011;58938;49.868;8.646;2023-01-23T01:13:10;13.75;;;7.20;;
71207;SDS011;58938;49.868;8.646;2023-01-23T01:15:37;14.00;;;7.38;;
71207;SDS011;58938;49.868;8.646;2023-01-23T01:18:03;13.73;;;7.22;;
71207;SDS011;58938;49.868;8.646;2023-01-23T01:20:29;13.67;;;7.43;;
71207;SDS011;58938;49.868;8.646;2023-01-23T01:22:56;13.27;;;6.72;;
71207;SDS011;58938;49.868;8.646;2023-01-23T01:25:22;13.90;;;6.68;;
71207;SDS011;58938;49.868;8.646;2023-01-23T01:27:48;12.30;;;5.40;;
71207;SDS011;58938;49.868;8.646;2023-01-23T01:30:17;13.90;;;6.60;;
71207;SDS011;58938;49.868;8.646;2023-01-23T01:32:43;14.77;;;6.95;;
71207;SDS011;58938;49.868;8.646;2023-01-23T01:35:10;16.45;;;7.60;;
71207;SDS011;58938;49.868;8.646;2023-01-23T01:37:36;15.05;;;6.55;;
71207;SDS011;58938;49.868;8.646;2023-01-23T01:40:06;14.20;;;6.97;;
71207;SDS011;58938;49.868;8.646;2023-01-23T01:42:37;14.00;;;7.20;;
71207;SDS011;58938;49.868;8.646;2023-01-23T01:45:04;14.85;;;7.03;;
71207;SDS011;58938;49.868;8.646;2023-01-23T01:47:30;14.15;;;6.75;;
71207;SDS011;58938;49.868;8.646;2023-01-23T01:49:58;17.08;;;7.55;;
71207;SDS011;58938;49.868;8.646;2023-01-23T01:52:25;13.93;;;7.10;;
71207;SDS011;58938;49.868;8.646;2023-01-23T01:57:33;14.07;;;7.60;;
71207;SDS011;58938;49.868;8.646;2023-01-23T02:02:46;14.63;;;6.90;;
71207;SDS011;58938;49.868;8.646;2023-01-23T02:05:30;14.05;;;6.60;;
71207;SDS011;58938;49.868;8.646;2023-01-23T02:08:01;14.43;;;7.27;;
71207;SDS011;58938;49.868;8.646;2023-01-23T02:10:29;13.30;;;6.97;;
71207;SDS011;58938;49.868;8.646;2023-01-23T02:13:13;15.30;;;8.15;;
71207;SDS011;58938;49.868;8.646;2023-01-23T02:15:42;14.65;;;6.90;;
71207;SDS011;58938;49.868;8.646;2023-01-23T02:18:08;14.52;;;7.30;;
71207;SDS011;58938;49.868;8.646;2023-01-23T02:20:34;15.00;;;6.77;;
71207;SDS011;58938;49.868;8.646;2023-01-23T02:28:09;14.98;;;7.93;;
71207;SDS011;58938;49.868;8.646;2023-01-23T02:30:36;16.50;;;8.17;;
71207;SDS011;58938;49.868;8.646;2023-01-23T02:35:56;13.95;;;7.00;;
71207;SDS011;58938;49.868;8.646;2023-01-23T02:38:24;15.27;;;7.18;;
71207;SDS011;58938;49.868;8.646;2023-01-23T02:40:50;13.15;;;7.07;;
71207;SDS011;58938;49.868;8.646;2023-01-23T02:43:17;16.77;;;7.37;;
71207;SDS011;58938;49.868;8.646;2023-01-23T02:45:45;15.45;;;7.07;;
71207;SDS011;58938;49.868;8.646;2023-01-23T02:48:11;15.00;;;6.65;;
71207;SDS011;58938;49.868;8.646;2023-01-23T02:50:37;15.73;;;7.75;;
71207;SDS011;58938;49.868;8.646;2023-01-23T02:53:04;13.57;;;7.00;;
71207;SDS011;58938;49.868;8.646;2023-01-23T02:55:30;14.87;;;7.53;;
71207;SDS011;58938;49.868;8.646;2023-01-23T02:57:58;14.82;;;7.03;;
71207;SDS011;58938;49.868;8.646;2023-01-23T03:00:44;15.82;;;8.40;;
71207;SDS011;58938;49.868;8.646;2023-01-23T03:03:10;14.88;;;7.63;;
71207;SDS011;58938;49.868;8.646;2023-01-23T03:05:36;17.13;;;7.88;;
71207;SDS011;58938;49.868;8.646;2023-01-23T03:08:03;16.10;;;6.60;;
71207;SDS011;58938;49.868;8.646;2023-01-23T03:10:29;10.85;;;5.65;;
71207;SDS011;58938;49.868;8.646;2023-01-23T03:12:55;17.45;;;7.13;;
71207;SDS011;58938;49.868;8.646;2023-01-23T03:15:25;14.07;;;6.63;;
71207;SDS011;58938;49.868;8.646;2023-01-23T03:17:51;12.80;;;6.50;;
71207;SDS011;58938;49.868;8.646;2023-01-23T03:20:18;14.93;;;7.40;;
71207;SDS011;58938;49.868;8.646;2023-01-23T03:22:47;16.45;;;7.60;;
71207;SDS011;58938;49.868;8.646;2023-01-23T03:25:13;16.23;;;7.35;;
71207;SDS011;58938;49.868;8.646;2023-01-23T03:27:39;16.80;;;7.43;;
71207;SDS011;58938;49.868;8.646;2023-01-23T03:30:05;16.33;;;7.25;;
71207;SDS011;58938;49.868;8.646;2023-01-23T03:32:37;14.77;;;7.40;;
71207;SDS011;58938;49.868;8.646;2023-01-23T03:35:03;12.93;;;7.38;;
71207;SDS011;58938;49.868;8.646;2023-01-23T03:37:29;13.83;;;6.63;;
71207;SDS011;58938;49.868;8.646;2023-01-23T03:39:55;12.75;;;6.68;;
71207;SDS011;58938;49.868;8.646;2023-01-23T03:42:40;11.80;;;5.55;;
71207;SDS011;58938;49.868;8.646;2023-01-23T03:45:06;13.45;;;7.47;;
71207;SDS011;58938;49.868;8.646;2023-01-23T03:47:32;15.25;;;7.55;;
71207;SDS011;58938;49.868;8.646;2023-01-23T03:49:58;15.87;;;7.23;;
71207;SDS011;58938;49.868;8.646;2023-01-23T03:52:24;18.33;;;8.40;;
71207;SDS011;58938;49.868;8.646;2023-01-23T03:54:50;14.88;;;6.82;;
71207;SDS011;58938;49.868;8.646;2023-01-23T03:57:16;16.17;;;7.72;;
71207;SDS011;58938;49.868;8.646;2023-01-23T03:59:42;15.20;;;8.10;;
71207;SDS011;58938;49.868;8.646;2023-01-23T04:02:08;13.10;;;7.30;;
71207;SDS011;58938;49.868;8.646;2023-01-23T04:04:34;15.27;;;6.60;;
71207;SDS011;58938;49.868;8.646;2023-01-23T04:07:01;17.48;;;7.68;;
71207;SDS011;58938;49.868;8.646;2023-01-23T04:09:27;14.10;;;7.88;;
71207;SDS011;58938;49.868;8.646;2023-01-23T04:11:53;14.30;;;7.00;;
71207;SDS011;58938;49.868;8.646;2023-01-23T04:14:20;12.60;;;6.38;;
71207;SDS011;58938;49.868;8.646;2023-01-23T04:16:47;13.35;;;6.57;;
71207;SDS011;58938;49.868;8.646;2023-01-23T04:19:13;12.05;;;5.93;;
71207;SDS011;58938;49.868;8.646;2023-01-23T04:21:43;10.18;;;5.15;;
71207;SDS011;58938;49.868;8.646;2023-01-23T04:24:09;12.07;;;6.30;;
71207;SDS011;58938;49.868;8.646;2023-01-23T04:26:35;10.38;;;5.07;;
71207;SDS011;58938;49.868;8.646;2023-01-23T04:29:02;10.25;;;5.15;;
71207;SDS011;58938;49.868;8.646;2023-01-23T04:31:28;12.93;;;6.70;;
71207;SDS011;58938;49.868;8.646;2023-01-23T04:33:54;11.47;;;6.20;;
71207;SDS011;58938;49.868;8.646;2023-01-23T04:36:20;12.10;;;5.65;;
71207;SDS011;58938;49.868;8.646;2023-01-23T04:38:46;11.40;;;6.03;;
71207;SDS011;58938;49.868;8.646;2023-01-23T04:41:19;10.52;;;5.88;;
71207;SDS011;58938;49.868;8.646;2023-01-23T04:43:45;13.88;;;6.70;;
71207;SDS011;58938;49.868;8.646;2023-01-23T04:46:11;11.17;;;5.63;;
71207;SDS011;58938;49.868;8.646;2023-01-23T04:48:37;12.02;;;6.43;;
71207;SDS011;58938;49.868;8.646;2023-01-23T04:51:03;14.73;;;7.25;;
71207;SDS011;58938;49.868;8.646;2023-01-23T04:53:29;27.58;;;7.35;;
71207;SDS011;58938;49.868;8.646;2023-01-23T04:55:55;11.63;;;5.25;;
71207;SDS011;58938;49.868;8.646;2023-01-23T04:58:21;10.60;;;6.10;;
71207;SDS011;58938;49.868;8.646;2023-01-23T05:00:47;13.48;;;5.68;;
71207;SDS011;58938;49.868;8.646;2023-01-23T05:03:13;10.73;;;5.97;;
71207;SDS011;58938;49.868;8.646;2023-01-23T05:05:40;10.40;;;5.40;;
71207;SDS011;58938;49.868;8.646;2023-01-23T05:08:08;9.48;;;4.38;;
71207;SDS011;58938;49.868;8.646;2023-01-23T05:10:34;12.80;;;5.27;;
71207;SDS011;58938;49.868;8.646;2023-01-23T05:13:00;11.23;;;5.00;;
71207;SDS011;58938;49.868;8.646;2023-01-23T05:15:26;10.02;;;4.55;;
71207;SDS011;58938;49.868;8.646;2023-01-23T05:17:52;12.07;;;5.57;;
71207;SDS011;58938;49.868;8.646;2023-01-23T05:20:18;11.38;;;4.90;;
71207;SDS011;58938;49.868;8.646;2023-01-23T05:22:44;10.27;;;5.80;;
71207;SDS011;58938;49.868;8.646;2023-01-23T05:25:17;11.25;;;5.32;;
71207;SDS011;58938;49.868;8.646;2023-01-23T05:27:43;10.40;;;5.47;;
71207;SDS011;58938;49.868;8.646;2023-01-23T05:30:09;11.23;;;5.50;;
71207;SDS011;58938;49.868;8.646;2023-01-23T05:32:36;10.05;;;5.40;;
71207;SDS011;58938;49.868;8.646;2023-01-23T05:35:01;10.80;;;5.28;;
71207;SDS011;58938;49.868;8.646;2023-01-23T05:37:27;10.05;;;4.95;;
71207;SDS011;58938;49.868;8.646;2023-01-23T05:39:53;8.40;;;4.63;;
71207;SDS011;58938;49.868;8.646;2023-01-23T05:42:19;11.82;;;6.15;;
71207;SDS011;58938;49.868;8.646;2023-01-23T05:44:45;9.15;;;4.30;;
71207;SDS011;58938;49.868;8.646;2023-01-23T05:47:11;10.60;;;5.25;;
71207;SDS011;58938;49.868;8.646;2023-01-23T05:49:38;10.50;;;5.07;;
71207;SDS011;58938;49.868;8.646;2023-01-23T05:52:04;13.27;;;5.93;;
71207;SDS011;58938;49.868;8.646;2023-01-23T05:54:30;9.63;;;4.78;;
71207;SDS011;58938;49.868;8.646;2023-01-23T05:56:56;10.70;;;5.80;;
71207;SDS011;58938;49.868;8.646;2023-01-23T05:59:22;11.10;;;5.28;;
71207;SDS011;58938;49.868;8.646;2023-01-23T06:01:48;10.70;;;4.80;;
71207;SDS011;58938;49.868;8.646;2023-01-23T06:04:14;10.70;;;5.35;;
71207;SDS011;58938;49.868;8.646;2023-01-23T06:06:44;10.00;;;4.90;;
71207;SDS011;58938;49.868;8.646;2023-01-23T06:09:10;11.47;;;6.13;;
71207;SDS011;58938;49.868;8.646;2023-01-23T06:11:36;9.27;;;4.65;;
71207;SDS011;58938;49.868;8.646;2023-01-23T06:14:02;10.57;;;5.05;;
71207;SDS011;58938;49.868;8.646;2023-01-23T06:16:28;10.23;;;5.68;;
71207;SDS011;58938;49.868;8.646;2023-01-23T06:18:54;11.27;;;6.00;;
71207;SDS011;58938;49.868;8.646;2023-01-23T06:21:20;12.50;;;5.10;;
71207;SDS011;58938;49.868;8.646;2023-01-23T06:23:46;9.95;;;5.88;;
71207;SDS011;58938;49.868;8.646;2023-01-23T06:26:12;7.97;;;4.88;;
71207;SDS011;58938;49.868;8.646;2023-01-23T06:28:39;12.57;;;5.63;;
71207;SDS011;58938;49.868;8.646;2023-01-23T06:31:05;9.90;;;5.00;;
71207;SDS011;58938;49.868;8.646;2023-01-23T06:33:33;9.52;;;5.10;;
71207;SDS011;58938;49.868;8.646;2023-01-23T06:35:59;10.27;;;5.07;;
71207;SDS011;58938;49.868;8.646;2023-01-23T06:38:26;13.45;;;5.70;;
71207;SDS011;58938;49.868;8.646;2023-01-23T06:40:52;11.23;;;5.50;;
71207;SDS011;58938;49.868;8.646;2023-01-23T06:43:18;11.95;;;5.32;;
71207;SDS011;58938;49.868;8.646;2023-01-23T06:45:44;12.35;;;5.82;;
71207;SDS011;58938;49.868;8.646;2023-01-23T06:48:10;12.40;;;6.32;;
71207;SDS011;58938;49.868;8.646;2023-01-23T06:50:37;11.03;;;5.83;;
71207;SDS011;58938;49.868;8.646;2023-01-23T06:53:03;10.30;;;5.45;;
71207;SDS011;58938;49.868;8.646;2023-01-23T06:55:32;10.93;;;6.13;;
71207;SDS011;58938;49.868;8.646;2023-01-23T06:57:58;11.32;;;5.32;;
71207;SDS011;58938;49.868;8.646;2023-01-23T07:00:25;10.82;;;5.63;;
71207;SDS011;58938;49.868;8.646;2023-01-23T07:02:51;11.10;;;5.37;;
71207;SDS011;58938;49.868;8.646;2023-01-23T07:05:17;10.55;;;5.80;;
71207;SDS011;58938;49.868;8.646;2023-01-23T07:07:44;10.35;;;5.25;;
71207;SDS011;58938;49.868;8.646;2023-01-23T07:10:10;10.75;;;5.88;;
71207;SDS011;58938;49.868;8.646;2023-01-23T07:12:36;10.88;;;5.40;;
71207;SDS011;58938;49.868;8.646;2023-01-23T07:15:03;9.30;;;5.10;;
71207;SDS011;58938;49.868;8.646;2023-01-23T07:17:29;11.50;;;5.18;;
71207;SDS011;58938;49.868;8.646;2023-01-23T07:19:55;9.13;;;5.10;;
71207;SDS011;58938;49.868;8.646;2023-01-23T07:22:21;14.77;;;5.45;;
71207;SDS011;58938;49.868;8.646;2023-01-23T07:24:47;11.52;;;5.03;;
71207;SDS011;58938;49.868;8.646;2023-01-23T07:27:14;12.47;;;5.70;;
71207;SDS011;58938;49.868;8.646;2023-01-23T07:29:40;9.77;;;4.82;;
71207;SDS011;58938;49.868;8.646;2023-01-23T07:32:06;9.70;;;5.13;;
71207;SDS011;58938;49.868;8.646;2023-01-23T07:34:32;10.90;;;5.88;;
71207;SDS011;58938;49.868;8.646;2023-01-23T07:36:58;9.77;;;5.10;;
71207;SDS011;58938;49.868;8.646;2023-01-23T07:39:24;12.20;;;5.80;;
71207;SDS011;58938;49.868;8.646;2023-01-23T07:41:50;11.02;;;5.45;;
71207;SDS011;58938;49.868;8.646;2023-01-23T07:44:17;10.70;;;5.53;;
71207;SDS011;58938;49.868;8.646;2023-01-23T07:46:44;9.82;;;5.50;;
71207;SDS011;58938;49.868;8.646;2023-01-23T07:49:10;13.27;;;6.13;;
71207;SDS011;58938;49.868;8.646;2023-01-23T07:51:36;10.90;;;5.88;;
71207;SDS011;58938;49.868;8.646;2023-01-23T07:54:02;11.23;;;5.80;;
71207;SDS011;58938;49.868;8.646;2023-01-23T07:56:28;14.50;;;6.20;;
71207;SDS011;58938;49.868;8.646;2023-01-23T07:58:53;11.60;;;5.70;;
71207;SDS011;58938;49.868;8.646;2023-01-23T08:01:19;10.83;;;5.27;;
71207;SDS011;58938;49.868;8.646;2023-01-23T08:03:46;11.07;;;5.30;;
71207;SDS011;58938;49.868;8.646;2023-01-23T08:06:12;15.07;;;6.60;;
71207;SDS011;58938;49.868;8.646;2023-01-23T08:08:38;9.48;;;5.05;;
71207;SDS011;58938;49.868;8.646;2023-01-23T08:11:04;14.77;;;5.40;;
71207;SDS011;58938;49.868;8.646;2023-01-23T08:13:30;10.48;;;5.50;;
71207;SDS011;58938;49.868;8.646;2023-01-23T08:15:57;10.90;;;5.82;;
71207;SDS011;58938;49.868;8.646;2023-01-23T08:18:23;10.95;;;5.82;;
71207;SDS011;58938;49.868;8.646;2023-01-23T08:20:56;11.82;;;5.57;;
71207;SDS011;58938;49.868;8.646;2023-01-23T08:23:23;12.00;;;5.87;;
71207;SDS011;58938;49.868;8.646;2023-01-23T08:25:56;10.07;;;5.25;;
71207;SDS011;58938;49.868;8.646;2023-01-23T08:28:22;11.32;;;6.40;;
71207;SDS011;58938;49.868;8.646;2023-01-23T08:30:48;10.68;;;6.10;;
71207;SDS011;58938;49.868;8.646;2023-01-23T08:33:15;12.32;;;6.03;;
71207;SDS011;58938;49.868;8.646;2023-01-23T08:36:14;10.80;;;5.77;;
71207;SDS011;58938;49.868;8.646;2023-01-23T08:38:33;11.35;;;6.05;;
71207;SDS011;58938;49.868;8.646;2023-01-23T08:41:00;11.48;;;5.72;;
71207;SDS011;58938;49.868;8.646;2023-01-23T08:43:26;10.55;;;6.00;;
71207;SDS011;58938;49.868;8.646;2023-01-23T08:45:53;11.23;;;5.60;;
71207;SDS011;58938;49.868;8.646;2023-01-23T08:48:20;10.40;;;5.05;;
71207;SDS011;58938;49.868;8.646;2023-01-23T08:50:46;9.90;;;6.18;;
71207;SDS011;58938;49.868;8.646;2023-01-23T08:53:12;9.90;;;5.68;;
71207;SDS011;58938;49.868;8.646;2023-01-23T08:55:38;12.85;;;6.35;;
71207;SDS011;58938;49.868;8.646;2023-01-23T08:58:05;12.97;;;5.13;;
71207;SDS011;58938;49.868;8.646;2023-01-23T09:00:31;10.27;;;5.82;;
71207;SDS011;58938;49.868;8.646;2023-01-23T09:02:58;12.25;;;5.85;;
71207;SDS011;58938;49.868;8.646;2023-01-23T09:05:25;12.32;;;6.00;;
71207;SDS011;58938;49.868;8.646;2023-01-23T09:07:51;10.15;;;5.38;;
71207;SDS011;58938;49.868;8.646;2023-01-23T09:10:17;9.90;;;5.20;;
71207;SDS011;58938;49.868;8.646;2023-01-23T09:12:43;11.38;;;5.75;;
71207;SDS011;58938;49.868;8.646;2023-01-23T09:15:09;10.15;;;5.18;;
71207;SDS011;58938;49.868;8.646;2023-01-23T09:17:35;11.63;;;6.32;;
71207;SDS011;58938;49.868;8.646;2023-01-23T09:20:01;10.03;;;5.53;;
71207;SDS011;58938;49.868;8.646;2023-01-23T09:22:29;11.50;;;5.90;;
71207;SDS011;58938;49.868;8.646;2023-01-23T09:24:56;10.25;;;5.28;;
71207;SDS011;58938;49.868;8.646;2023-01-23T09:27:22;11.32;;;6.25;;
71207;SDS011;58938;49.868;8.646;2023-01-23T09:29:48;11.13;;;5.63;;
71207;SDS011;58938;49.868;8.646;2023-01-23T09:32:14;11.38;;;6.40;;
71207;SDS011;58938;49.868;8.646;2023-01-23T09:34:40;12.90;;;6.13;;
71207;SDS011;58938;49.868;8.646;2023-01-23T09:37:07;11.57;;;5.80;;
71207;SDS011;58938;49.868;8.646;2023-01-23T09:39:32;9.90;;;5.43;;
71207;SDS011;58938;49.868;8.646;2023-01-23T09:42:01;11.40;;;6.05;;
71207;SDS011;58938;49.868;8.646;2023-01-23T09:44:41;10.27;;;5.20;;
71207;SDS011;58938;49.868;8.646;2023-01-23T09:47:11;11.25;;;6.00;;
71207;SDS011;58938;49.868;8.646;2023-01-23T09:52:25;10.60;;;5.82;;
71207;SDS011;58938;49.868;8.646;2023-01-23T09:57:27;9.63;;;5.40;;
71207;SDS011;58938;49.868;8.646;2023-01-23T10:00:03;10.38;;;5.18;;
71207;SDS011;58938;49.868;8.646;2023-01-23T10:02:30;10.98;;;5.10;;
71207;SDS011;58938;49.868;8.646;2023-01-23T10:04:56;10.38;;;5.18;;
71207;SDS011;58938;49.868;8.646;2023-01-23T10:20:26;11.23;;;6.33;;
71207;SDS011;58938;49.868;8.646;2023-01-23T10:23:08;9.60;;;5.27;;
71207;SDS011;58938;49.868;8.646;2023-01-23T10:25:37;12.80;;;7.57;;
71207;SDS011;58938;49.868;8.646;2023-01-23T10:30:53;9.48;;;4.85;;
71207;SDS011;58938;49.868;8.646;2023-01-23T10:33:21;11.10;;;5.35;;
71207;SDS011;58938;49.868;8.646;2023-01-23T10:36:16;12.47;;;6.23;;
71207;SDS011;58938;49.868;8.646;2023-01-23T10:41:07;10.50;;;5.85;;
71207;SDS011;58938;49.868;8.646;2023-01-23T10:43:37;7.65;;;4.30;;
71207;SDS011;58938;49.868;8.646;2023-01-23T10:48:50;10.13;;;5.75;;
71207;SDS011;58938;49.868;8.646;2023-01-23T10:56:35;10.52;;;5.30;;
71207;SDS011;58938;49.868;8.646;2023-01-23T10:59:02;10.07;;;4.93;;
71207;SDS011;58938;49.868;8.646;2023-01-23T11:01:30;8.73;;;4.68;;
71207;SDS011;58938;49.868;8.646;2023-01-23T11:03:56;10.57;;;5.53;;
71207;SDS011;58938;49.868;8.646;2023-01-23T11:06:33;9.93;;;4.65;;
71207;SDS011;58938;49.868;8.646;2023-01-23T11:08:59;9.63;;;4.75;;
71207;SDS011;58938;49.868;8.646;2023-01-23T11:11:27;8.63;;;5.13;;
71207;SDS011;58938;49.868;8.646;2023-01-23T11:16:38;9.57;;;4.95;;
71207;SDS011;58938;49.868;8.646;2023-01-23T11:24:18;15.87;;;5.37;;
71207;SDS011;58938;49.868;8.646;2023-01-23T11:26:44;11.82;;;6.18;;
71207;SDS011;58938;49.868;8.646;2023-01-23T11:31:46;15.65;;;7.53;;
71207;SDS011;58938;49.868;8.646;2023-01-23T11:34:12;13.48;;;6.85;;
71207;SDS011;58938;49.868;8.646;2023-01-23T11:36:51;11.70;;;5.43;;
71207;SDS011;58938;49.868;8.646;2023-01-23T11:41:51;11.13;;;6.15;;
71207;SDS011;58938;49.868;8.646;2023-01-23T11:44:17;10.30;;;5.95;;
71207;SDS011;58938;49.868;8.646;2023-01-23T11:49:23;11.53;;;6.20;;
71207;SDS011;58938;49.868;8.646;2023-01-23T11:51:59;13.25;;;6.25;;
71207;SDS011;58938;49.868;8.646;2023-01-23T12:04:58;13.90;;;6.40;;
71207;SDS011;58938;49.868;8.646;2023-01-23T12:07:26;17.27;;;8.25;;
71207;SDS011;58938;49.868;8.646;2023-01-23T12:20:30;11.50;;;6.13;;
71207;SDS011;58938;49.868;8.646;2023-01-23T12:25:44;13.85;;;6.80;;
71207;SDS011;58938;49.868;8.646;2023-01-23T12:30:57;18.40;;;7.28;;
71207;SDS011;58938;49.868;8.646;2023-01-23T12:44:00;13.25;;;6.38;;
71207;SDS011;58938;49.868;8.646;2023-01-23T12:51:35;11.67;;;6.17;;
71207;SDS011;58938;49.868;8.646;2023-01-23T12:54:03;15.30;;;6.30;;
71207;SDS011;58938;49.868;8.646;2023-01-23T12:56:30;14.98;;;7.25;;
71207;SDS011;58938;49.868;8.646;2023-01-23T12:59:04;11.10;;;5.63;;
71207;SDS011;58938;49.868;8.646;2023-01-23T13:01:54;11.20;;;6.40;;
71207;SDS011;58938;49.868;8.646;2023-01-23T13:07:01;10.15;;;5.35;;
71207;SDS011;58938;49.868;8.646;2023-01-23T13:16:58;10.90;;;5.20;;
71207;SDS011;58938;49.868;8.646;2023-01-23T13:19:30;12.85;;;6.72;;
71207;SDS011;58938;49.868;8.646;2023-01-23T13:22:23;12.60;;;6.18;;
71207;SDS011;58938;49.868;8.646;2023-01-23T13:25:01;11.00;;;5.97;;
71207;SDS011;58938;49.868;8.646;2023-01-23T13:27:44;12.55;;;5.78;;
71207;SDS011;58938;49.868;8.646;2023-01-23T13:32:53;14.18;;;5.95;;
71207;SDS011;58938;49.868;8.646;2023-01-23T13:49:07;11.02;;;5.40;;
71207;SDS011;58938;49.868;8.646;2023-01-23T13:51:58;9.30;;;4.88;;
71207;SDS011;58938;49.868;8.646;2023-01-23T13:54:29;12.00;;;6.22;;
71207;SDS011;58938;49.868;8.646;2023-01-23T13:57:17;10.70;;;5.37;;
71207;SDS011;58938;49.868;8.646;2023-01-23T13:59:44;16.88;;;6.18;;
71207;SDS011;58938;49.868;8.646;2023-01-23T14:05:14;16.88;;;6.75;;
71207;SDS011;58938;49.868;8.646;2023-01-23T14:07:42;11.68;;;5.80;;
71207;SDS011;58938;49.868;8.646;2023-01-23T14:12:37;9.73;;;5.28;;
71207;SDS011;58938;49.868;8.646;2023-01-23T14:15:15;11.48;;;6.05;;
71207;SDS011;58938;49.868;8.646;2023-01-23T14:18:00;15.93;;;6.13;;
71207;SDS011;58938;49.868;8.646;2023-01-23T14:20:28;10.02;;;5.60;;
71207;SDS011;58938;49.868;8.646;2023-01-23T14:22:57;13.80;;;6.73;;
71207;SDS011;58938;49.868;8.646;2023-01-23T14:25:23;9.02;;;5.47;;
71207;SDS011;58938;49.868;8.646;2023-01-23T14:27:57;23.75;;;6.43;;
71207;SDS011;58938;49.868;8.646;2023-01-23T14:30:26;10.82;;;5.97;;
71207;SDS011;58938;49.868;8.646;2023-01-23T14:32:54;14.70;;;7.60;;
71207;SDS011;58938;49.868;8.646;2023-01-23T14:35:25;10.40;;;6.13;;
71207;SDS011;58938;49.868;8.646;2023-01-23T14:37:51;16.67;;;7.22;;
71207;SDS011;58938;49.868;8.646;2023-01-23T14:40:19;18.15;;;6.70;;
71207;SDS011;58938;49.868;8.646;2023-01-23T14:42:46;14.48;;;6.80;;
71207;SDS011;58938;49.868;8.646;2023-01-23T14:45:16;13.90;;;7.30;;
71207;SDS011;58938;49.868;8.646;2023-01-23T14:47:42;13.53;;;7.53;;
71207;SDS011;58938;49.868;8.646;2023-01-23T14:50:14;12.35;;;6.93;;
71207;SDS011;58938;49.868;8.646;2023-01-23T14:52:40;14.23;;;6.80;;
71207;SDS011;58938;49.868;8.646;2023-01-23T14:55:19;12.45;;;7.03;;
71207;SDS011;58938;49.868;8.646;2023-01-23T14:57:45;15.05;;;8.38;;
71207;SDS011;58938;49.868;8.646;2023-01-23T15:00:12;16.37;;;8.33;;
71207;SDS011;58938;49.868;8.646;2023-01-23T15:02:40;14.85;;;8.05;;
71207;SDS011;58938;49.868;8.646;2023-01-23T15:07:46;15.27;;;7.25;;
71207;SDS011;58938;49.868;8.646;2023-01-23T15:10:17;14.20;;;7.22;;
71207;SDS011;58938;49.868;8.646;2023-01-23T15:12:48;15.90;;;6.87;;
71207;SDS011;58938;49.868;8.646;2023-01-23T15:15:19;14.02;;;7.65;;
71207;SDS011;58938;49.868;8.646;2023-01-23T15:17:45;14.45;;;7.43;;
71207;SDS011;58938;49.868;8.646;2023-01-23T15:20:25;12.52;;;6.97;;
71207;SDS011;58938;49.868;8.646;2023-01-23T15:22:51;14.68;;;6.47;;
71207;SDS011;58938;49.868;8.646;2023-01-23T15:25:30;14.03;;;7.07;;
71207;SDS011;58938;49.868;8.646;2023-01-23T15:27:57;13.85;;;7.15;;
71207;SDS011;58938;49.868;8.646;2023-01-23T15:30:36;14.85;;;6.85;;
71207;SDS011;58938;49.868;8.646;2023-01-23T15:33:04;15.50;;;7.47;;
71207;SDS011;58938;49.868;8.646;2023-01-23T15:35:46;13.30;;;6.38;;
71207;SDS011;58938;49.868;8.646;2023-01-23T15:38:15;13.57;;;6.67;;
71207;SDS011;58938;49.868;8.646;2023-01-23T15:40:42;13.38;;;6.97;;
71207;SDS011;58938;49.868;8.646;2023-01-23T15:43:11;12.65;;;7.40;;
71207;SDS011;58938;49.868;8.646;2023-01-23T15:45:37;12.10;;;6.40;;
71207;SDS011;58938;49.868;8.646;2023-01-23T15:48:03;12.50;;;6.40;;
71207;SDS011;58938;49.868;8.646;2023-01-23T15:50:30;13.00;;;7.00;;
71207;SDS011;58938;49.868;8.646;2023-01-23T15:52:56;14.95;;;7.18;;
71207;SDS011;58938;49.868;8.646;2023-01-23T15:55:23;16.60;;;7.95;;
71207;SDS011;58938;49.868;8.646;2023-01-23T15:57:49;12.50;;;7.18;;
71207;SDS011;58938;49.868;8.646;2023-01-23T16:00:18;13.47;;;7.20;;
71207;SDS011;58938;49.868;8.646;2023-01-23T16:02:45;15.45;;;7.65;;
71207;SDS011;58938;49.868;8.646;2023-01-23T16:05:11;15.48;;;7.70;;
71207;SDS011;58938;49.868;8.646;2023-01-23T16:07:38;18.90;;;8.20;;
71207;SDS011;58938;49.868;8.646;2023-01-23T16:10:18;19.45;;;9.35;;
71207;SDS011;58938;49.868;8.646;2023-01-23T16:12:44;15.27;;;7.00;;
71207;SDS011;58938;49.868;8.646;2023-01-23T16:17:38;14.32;;;6.70;;
71207;SDS011;58938;49.868;8.646;2023-01-23T16:20:05;15.68;;;7.25;;
71207;SDS011;58938;49.868;8.646;2023-01-23T16:22:31;12.93;;;6.65;;
71207;SDS011;58938;49.868;8.646;2023-01-23T16:24:59;17.40;;;8.33;;
71207;SDS011;58938;49.868;8.646;2023-01-23T16:27:25;16.45;;;7.75;;
71207;SDS011;58938;49.868;8.646;2023-01-23T16:29:51;15.68;;;8.68;;
71207;SDS011;58938;49.868;8.646;2023-01-23T16:32:18;13.63;;;7.18;;
71207;SDS011;58938;49.868;8.646;2023-01-23T16:34:44;12.67;;;6.83;;
71207;SDS011;58938;49.868;8.646;2023-01-23T16:37:12;14.63;;;7.20;;
71207;SDS011;58938;49.868;8.646;2023-01-23T16:39:39;14.15;;;7.18;;
71207;SDS011;58938;49.868;8.646;2023-01-23T16:42:05;16.30;;;7.45;;
71207;SDS011;58938;49.868;8.646;2023-01-23T16:44:31;16.30;;;7.75;;
71207;SDS011;58938;49.868;8.646;2023-01-23T16:46:57;15.43;;;8.10;;
71207;SDS011;58938;49.868;8.646;2023-01-23T16:49:23;18.33;;;8.90;;
71207;SDS011;58938;49.868;8.646;2023-01-23T16:51:55;17.63;;;8.38;;
71207;SDS011;58938;49.868;8.646;2023-01-23T16:54:22;12.43;;;5.75;;
71207;SDS011;58938;49.868;8.646;2023-01-23T16:56:48;13.17;;;6.83;;
71207;SDS011;58938;49.868;8.646;2023-01-23T16:59:20;16.00;;;8.45;;